ADDS METAR Data INFO
IDs: Format: Raw Decoded Include TAF

Data at: 2100 UTC 19 Jul 2018

KLGC 192055Z AUTO 00000KT 10SM SCT030 BKN120 30/25 A2991 RMK AO2 LTG DSNT W THRU NE T03020252
KLGC 192035Z AUTO 00000KT 10SM -RA SCT030 BKN037 BKN047 31/25 A2991 RMK AO2 LTG DSNT W THRU N T03050251
KLGC 192015Z AUTO 23006KT 10SM -RA SCT031 SCT038 SCT050 30/25 A2992 RMK AO2 LTG DSNT N T02950249
KLGC 191955Z AUTO 23007KT 10SM CLR 30/25 A2992 RMK AO2 LTG DSNT N T03020254
KLGC 191935Z AUTO 23004KT 10SM SCT120 31/26 A2992 RMK AO2 LTG DSNT SW T03110256
KLGC 191915Z AUTO 00000KT 10SM SCT048 SCT065 OVC120 31/24 A2992 RMK AO2 LTG DSNT SW T03130240
KLGC 191855Z AUTO 00000KT 10SM SCT040 BKN060 OVC110 31/23 A2993 RMK AO2 LTG DSNT S T03140229
KLGC 191835Z AUTO 00000KT 10SM BKN040 BKN060 OVC100 31/23 A2993 RMK AO2 LTG DSNT SW T03140234
KLGC 191815Z AUTO 12003KT 10SM BKN040 OVC100 32/23 A2994 RMK AO2 LTG DSNT SW T03150231
KLGC 191755Z AUTO 00000KT 10SM SCT036 SCT050 BKN100 33/24 A2994 RMK AO2 LTG DSNT SW T03250235 10332 20246
KLGC 191735Z AUTO 15003KT 10SM SCT035 SCT050 33/24 A2995 RMK AO2 T03260239
KLGC 191715Z AUTO 12005KT 10SM SCT035 SCT046 SCT060 33/24 A2996 RMK AO2 LTG DSNT SW T03270239
KLGC 191655Z AUTO 09004KT 10SM SCT034 BKN046 BKN060 32/24 A2997 RMK AO2 T03180237
KLGC 191635Z AUTO 00000KT 10SM SCT032 33/25 A2998 RMK AO2 LTG DSNT SW T03260245
KLGC 191615Z AUTO 07005KT 10SM SCT028 32/24 A2998 RMK AO2 T03200240
KLGC 191555Z AUTO 12003KT 10SM SCT026 31/24 A2998 RMK AO2 T03120243
KLGC 191535Z AUTO 16005KT 10SM CLR 31/25 A2999 RMK AO2 T03130248
KLGC 191515Z AUTO 14008KT 10SM CLR 31/24 A2998 RMK AO2 T03060242
KLGC 191455Z AUTO 13006KT 10SM CLR 30/25 A2998 RMK AO2 T02990245
KLGC 191435Z AUTO 13006KT 10SM CLR 30/25 A2998 RMK AO2 T02950245
KLGC 191415Z AUTO 12004KT 10SM CLR 29/24 A2998 RMK AO2 T02890244
KLGC 191355Z AUTO 00000KT 10SM CLR 29/24 A2998 RMK AO2 T02850241
KLGC 191335Z AUTO 00000KT 10SM CLR 28/24 A2998 RMK AO2 T02800243
KLGC 191315Z AUTO 00000KT 10SM CLR 27/25 A2998 RMK AO2 T02700247
KLGC 191255Z AUTO 00000KT 10SM CLR 27/25 A2997 RMK AO2 T02650250
KLGC 191235Z AUTO 00000KT 10SM CLR 26/25 A2998 RMK AO2 T02550247
KLGC 191215Z AUTO 00000KT 10SM CLR 25/24 A2997 RMK AO2 LTG DSNT SW T02460243
KLGC 191155Z AUTO 00000KT 7SM CLR 25/24 A2997 RMK AO2 T02460243 10246 20230
KLGC 191135Z AUTO 00000KT 7SM CLR 24/24 A2996 RMK AO2 T02400236
KLGC 191115Z AUTO 00000KT 4SM BR SCT120 23/23 A2996 RMK AO2 T02310228
KLGC 191055Z AUTO 00000KT 4SM BR SCT120 24/23 A2995 RMK AO2 T02350232
KLGC 191035Z AUTO 00000KT 7SM CLR 23/23 A2995 RMK AO2 T02330230
KLGC 191015Z AUTO 00000KT 7SM CLR 23/23 A2994 RMK AO2 T02330230
KLGC 190955Z AUTO 00000KT 10SM CLR 23/23 A2994 RMK AO2 T02310228
KLGC 190935Z AUTO 00000KT 10SM CLR 23/23 A2994 RMK AO2 T02330230
KLGC 190915Z AUTO 00000KT 1 3/4SM BR VV007 23/23 A2994 RMK AO2 T02300227
KLGC 190855Z AUTO 00000KT 5SM BR CLR 23/23 A2994 RMK AO2 T02320230
KLGC 190835Z AUTO 00000KT 5SM BR CLR 23/23 A2992 RMK AO2 T02300227
KLGC 190815Z AUTO 00000KT 7SM CLR 23/23 A2992 RMK AO2 T02320230
KLGC 190755Z AUTO 00000KT 2 1/2SM BR CLR 23/23 A2992 RMK AO2 T02330230
KLGC 190735Z AUTO 00000KT 4SM BR CLR 24/23 A2992 RMK AO2 T02350232
KLGC 190715Z AUTO 00000KT 7SM CLR 24/23 A2992 RMK AO2 T02370234
KLGC 190655Z AUTO 00000KT 4SM BR CLR 24/23 A2992 RMK AO2 T02350232
KLGC 190635Z AUTO 17003KT 2 1/2SM BR CLR 24/23 A2993 RMK AO2 T02360233
KLGC 190615Z AUTO 00000KT 7SM CLR 24/23 A2993 RMK AO2 T02350232
KLGC 190555Z AUTO 00000KT 1 3/4SM BR SCT060 24/24 A2994 RMK AO2 T02380235 10301 20238 403410226
KLGC 190535Z AUTO 00000KT 10SM SCT060 24/24 A2993 RMK AO2 T02430240
KLGC 190515Z AUTO 00000KT 7SM CLR 24/24 A2995 RMK AO2 T02430240
KLGC 190455Z AUTO 00000KT 5SM BR CLR 24/24 A2995 RMK AO2 T02420240
KLGC 190435Z AUTO 00000KT 10SM CLR 25/25 A2995 RMK AO2 T02480245
KLGC 190415Z AUTO 00000KT 10SM CLR 25/24 A2995 RMK AO2 T02470244
KLGC 190355Z AUTO 00000KT 10SM CLR 25/25 A2995 RMK AO2 T02510248
KLGC 190335Z AUTO 00000KT 10SM CLR 26/25 A2996 RMK AO2 T02560253
KLGC 190315Z AUTO 00000KT 10SM CLR 26/25 A2996 RMK AO2 T02560252
KLGC 190255Z AUTO 00000KT 10SM CLR 26/26 A2997 RMK AO2 T02600257
KLGC 190235Z AUTO 00000KT 10SM CLR 26/25 A2996 RMK AO2 T02550252
KLGC 190215Z AUTO 00000KT 10SM CLR 26/25 A2995 RMK AO2 LTG DSNT E AND SE T02560254
KLGC 190155Z AUTO 00000KT 10SM CLR 26/26 A2995 RMK AO2 LTG DSNT NE AND E T02590256
KLGC 190135Z AUTO 00000KT 10SM CLR 26/26 A2994 RMK AO2 LTG DSNT E T02610258
KLGC 190115Z AUTO 00000KT 10SM CLR 26/26 A2993 RMK AO2 LTG DSNT NE E AND W T02610258
KLGC 190055Z AUTO 00000KT 10SM CLR 27/27 A2993 RMK AO2 T02670265
KLGC 190035Z AUTO 00000KT 10SM CLR 28/27 A2993 RMK AO2 T02750273
KLGC 190015Z AUTO 00000KT 10SM CLR 29/24 A2992 RMK AO2 T02900239
KLGC 182355Z AUTO 28003KT 10SM SCT120 30/24 A2992 RMK AO2 T03010235 10341 20297
KLGC 182335Z AUTO 27003KT 10SM SCT120 31/25 A2992 RMK AO2 T03070253
KLGC 182315Z AUTO 00000KT 10SM SCT050 SCT060 BKN120 30/25 A2991 RMK AO2 T03030248
KLGC 182255Z AUTO 24003KT 10SM SCT050 SCT060 SCT120 31/24 A2991 RMK AO2 T03060244
KLGC 182235Z AUTO 00000KT 10SM SCT050 SCT065 30/24 A2991 RMK AO2 T02980241
KLGC 182215Z AUTO 24005KT 10SM BKN050 BKN065 31/25 A2991 RMK AO2 T03090251
KLGC 182155Z AUTO 21005KT 10SM BKN050 32/25 A2991 RMK AO2 T03150252
KLGC 182135Z AUTO 00000KT 10SM SCT048 SCT060 33/23 A2991 RMK AO2 T03320225
KLGC 182115Z AUTO 35003KT 10SM SCT060 SCT070 33/23 A2991 RMK AO2 T03320226
KLGC 182055Z AUTO 01003KT 10SM SCT047 33/23 A2991 RMK AO2 LTG DSNT W T03270225
KLGC 182035Z AUTO 35004KT 10SM SCT047 BKN060 33/23 A2991 RMK AO2 LTG DSNT SW T03340226
KLGC 182015Z AUTO 00000KT 10SM SCT047 SCT060 33/22 A2992 RMK AO2 T03300224
KLGC 181955Z AUTO 00000KT 10SM SCT040 SCT047 SCT060 33/22 A2994 RMK AO2 T03310219
KLGC 181935Z AUTO 00000KT 10SM SCT040 SCT060 SCT080 33/23 A2994 RMK AO2 LTG DSNT SW T03330229
KLGC 181915Z AUTO 21004KT 10SM SCT043 SCT065 BKN090 33/25 A2994 RMK AO2 LTG DSNT SW T03330246
KLGC 181855Z AUTO 30006KT 10SM SCT041 BKN048 OVC065 32/24 A2995 RMK AO2 LTG DSNT SW AND W T03190240
KLGC 181835Z AUTO 35003KT 10SM SCT039 BKN050 BKN065 32/23 A2996 RMK AO2 LTG DSNT SW T03200234
KLGC 181815Z AUTO 00000KT 10SM SCT041 BKN047 BKN060 32/24 A2996 RMK AO2 LTG DSNT SW T03210239
KLGC 181755Z AUTO 25003KT 10SM SCT033 BKN043 33/25 A2997 RMK AO2 LTG DSNT SW T03280246 10328 20248
KLGC 181735Z AUTO 00000KT 10SM BKN031 32/24 A2997 RMK AO2 T03220244
KLGC 181715Z AUTO 00000KT 10SM SCT031 32/25 A2998 RMK AO2 LTG DSNT SW T03200249
KLGC 181655Z AUTO 31005KT 10SM CLR 32/25 A2999 RMK AO2 T03180248
KLGC 181635Z AUTO 32004KT 10SM SCT024 31/23 A3000 RMK AO2 T03110232
KLGC 181615Z AUTO 00000KT 10SM SCT024 31/25 A3000 RMK AO2 T03090247
KLGC 181555Z AUTO 00000KT 10SM CLR 30/25 A3000 RMK AO2 T03010246
KLGC 181535Z AUTO 36003KT 10SM CLR 30/26 A3001 RMK AO2 T02960256
KLGC 181515Z AUTO 01003KT 10SM CLR 29/25 A3001 RMK AO2 T02870253
KLGC 181455Z AUTO 00000KT 10SM CLR 29/25 A3001 RMK AO2 LTG DSNT SW T02870248
KLGC 181435Z AUTO 00000KT 10SM CLR 29/25 A3001 RMK AO2 T02880249
KLGC 181415Z AUTO 35003KT 10SM SCT011 29/25 A3000 RMK AO2 T02920254
KLGC 181355Z AUTO 00000KT 10SM SCT011 28/26 A3001 RMK AO2 T02810263
KLGC 181335Z AUTO 00000KT 10SM SCT011 28/27 A3001 RMK AO2 T02800266
KLGC 181315Z AUTO 00000KT 10SM SCT100 27/27 A3001 RMK AO2 T02740268
KLGC 181255Z AUTO 00000KT 7SM OVC100 27/26 A3001 RMK AO2 T02650262
KLGC 181235Z AUTO 00000KT 7SM SCT100 26/25 A3001 RMK AO2 T02570254
KLGC 181215Z AUTO 00000KT 5SM BR CLR 25/25 A3001 RMK AO2 LTG DSNT SW T02520250
KLGC 181155Z AUTO 00000KT 5SM BR CLR 25/24 A3000 RMK AO2 LTG DSNT SW T02470244 10247 20226
KLGC 181135Z AUTO 00000KT 2 1/2SM BR SCT120 24/23 A3000 RMK AO2 T02360234
KLGC 181115Z AUTO 00000KT 1SM BR BKN120 23/22 A2999 RMK AO2 T02260224
KLGC 181055Z AUTO 00000KT 3SM BR CLR 23/23 A2999 RMK AO2 T02300227
KLGC 181035Z AUTO 00000KT 7SM CLR 23/23 A2998 RMK AO2 T02300227
KLGC 181015Z AUTO 00000KT 3/4SM BR VV005 23/23 A2997 RMK AO2 T02290225
KLGC 180955Z AUTO 00000KT 1 1/4SM BR VV007 24/23 A2996 RMK AO2 VIS 1/2V4 T02350231
KLGC 180935Z AUTO 00000KT 2SM BR CLR 24/23 A2997 RMK AO2 T02350232
KLGC 180915Z AUTO 00000KT 5SM BR CLR 24/24 A2997 RMK AO2 T02380235